<?xml version="1.0" encoding="UTF-8" standalone="no" ?>
<gpx xmlns="http://www.topografix.com/GPX/1/1" xmlns:xsi="http://www.w3.org/2001/XMLSchema-instance" xsi:schemaLocation="http://www.topografix.com/GPX/1/1 http://www.topografix.com/GPX/1/1/gpx.xsd" version="1.1" creator="VisuGPX - https://www.visugpx.com">
  <metadata>
    <name>Lac de Cécélés en boucle au départ de Saint-Mathieu-de-Tréviers</name>
    <desc><![CDATA[#fait]]></desc>
  </metadata>
  <wpt lat="43.76739" lon="3.87978">
    <ele>104</ele>
    <name><![CDATA[Parking des Dominicaines]]></name>
  </wpt>
  <wpt lat="43.76842" lon="3.88094">
    <ele>116</ele>
    <name><![CDATA[Embranchement]]></name>
  </wpt>
  <wpt lat="43.76481" lon="3.88631">
    <ele>184</ele>
    <name><![CDATA[Cairn - Croisement de la boucle]]></name>
  </wpt>
  <wpt lat="43.76216" lon="3.88901">
    <ele>126</ele>
    <name><![CDATA[Piste]]></name>
  </wpt>
  <wpt lat="43.77415" lon="3.8976">
    <ele>118</ele>
    <name><![CDATA[Jonction route]]></name>
  </wpt>
  <wpt lat="43.78002" lon="3.91715">
    <ele>108</ele>
    <name><![CDATA[Traversée de la D1]]></name>
  </wpt>
  <wpt lat="43.78478" lon="3.92199">
    <ele>150</ele>
    <name><![CDATA[Point haut de Lamelle]]></name>
  </wpt>
  <wpt lat="43.79232" lon="3.91778">
    <ele>102</ele>
    <name><![CDATA[Croisement en T]]></name>
  </wpt>
  <wpt lat="43.79354" lon="3.91496">
    <ele>105</ele>
    <name><![CDATA[Intersection]]></name>
  </wpt>
  <wpt lat="43.79316" lon="3.91205">
    <ele>105</ele>
    <name><![CDATA[Chemin de Saint-Mathieu]]></name>
  </wpt>
  <wpt lat="43.78824" lon="3.90057">
    <ele>110</ele>
    <name><![CDATA[Accès à la Roque]]></name>
  </wpt>
  <wpt lat="43.7816" lon="3.88669">
    <ele>116</ele>
    <name><![CDATA[Départ de sentier]]></name>
  </wpt>
  <wpt lat="43.77655" lon="3.88732">
    <ele>122</ele>
    <name><![CDATA[Route D1]]></name>
  </wpt>
  <wpt lat="43.77144" lon="3.88901">
    <ele>219</ele>
    <name><![CDATA[Croisement]]></name>
  </wpt>
  <wpt lat="43.76739" lon="3.8798">
    <ele>105</ele>
    <name><![CDATA[Parking des Dominicaines]]></name>
  </wpt>
  <trk>
    <name><![CDATA[Lac de Cécélés en boucle au départ de Saint-Mathieu-de-Tréviers]]></name>
    <trkseg>
      <trkpt lat="43.76739" lon="3.87978">
        <ele>104</ele>
        <time>2022-01-18T10:13:17+01:00</time>
      </trkpt>
      <trkpt lat="43.76748" lon="3.87958">
        <ele>102</ele>
        <time>2022-01-18T10:13:35+01:00</time>
      </trkpt>
      <trkpt lat="43.76799" lon="3.87977">
        <ele>109</ele>
        <time>2022-01-18T10:15:47+01:00</time>
      </trkpt>
      <trkpt lat="43.76815" lon="3.88074">
        <ele>116</ele>
        <time>2022-01-18T10:17:03+01:00</time>
      </trkpt>
      <trkpt lat="43.76842" lon="3.88094">
        <ele>116</ele>
        <time>2022-01-18T10:17:29+01:00</time>
      </trkpt>
      <trkpt lat="43.76847" lon="3.88134">
        <ele>119</ele>
        <time>2022-01-18T10:17:56+01:00</time>
      </trkpt>
      <trkpt lat="43.76771" lon="3.88247">
        <ele>134</ele>
        <time>2022-01-18T10:20:31+01:00</time>
      </trkpt>
      <trkpt lat="43.76708" lon="3.88396">
        <ele>141</ele>
        <time>2022-01-18T10:22:16+01:00</time>
      </trkpt>
      <trkpt lat="43.76705" lon="3.88508">
        <ele>146</ele>
        <time>2022-01-18T10:23:20+01:00</time>
      </trkpt>
      <trkpt lat="43.76751" lon="3.88616">
        <ele>152</ele>
        <time>2022-01-18T10:24:42+01:00</time>
      </trkpt>
      <trkpt lat="43.76752" lon="3.88656">
        <ele>152</ele>
        <time>2022-01-18T10:25:07+01:00</time>
      </trkpt>
      <trkpt lat="43.76733" lon="3.88658">
        <ele>152</ele>
        <time>2022-01-18T10:25:24+01:00</time>
      </trkpt>
      <trkpt lat="43.7669" lon="3.88608">
        <ele>150</ele>
        <time>2022-01-18T10:26:09+01:00</time>
      </trkpt>
      <trkpt lat="43.76655" lon="3.88602">
        <ele>154</ele>
        <time>2022-01-18T10:26:37+01:00</time>
      </trkpt>
      <trkpt lat="43.7661" lon="3.88565">
        <ele>159</ele>
        <time>2022-01-18T10:27:26+01:00</time>
      </trkpt>
      <trkpt lat="43.76632" lon="3.88515">
        <ele>155</ele>
        <time>2022-01-18T10:28:02+01:00</time>
      </trkpt>
      <trkpt lat="43.76648" lon="3.88314">
        <ele>163</ele>
        <time>2022-01-18T10:30:07+01:00</time>
      </trkpt>
      <trkpt lat="43.76592" lon="3.884">
        <ele>175</ele>
        <time>2022-01-18T10:31:34+01:00</time>
      </trkpt>
      <trkpt lat="43.76527" lon="3.88559">
        <ele>182</ele>
        <time>2022-01-18T10:34:03+01:00</time>
      </trkpt>
      <trkpt lat="43.7648" lon="3.88581">
        <ele>185</ele>
        <time>2022-01-18T10:34:45+01:00</time>
      </trkpt>
      <trkpt lat="43.76481" lon="3.88631">
        <ele>184</ele>
        <time>2022-01-18T10:35:10+01:00</time>
      </trkpt>
      <trkpt lat="43.76517" lon="3.88654">
        <ele>180</ele>
        <time>2022-01-18T10:35:40+01:00</time>
      </trkpt>
      <trkpt lat="43.76433" lon="3.88609">
        <ele>183</ele>
        <time>2022-01-18T10:37:25+01:00</time>
      </trkpt>
      <trkpt lat="43.76427" lon="3.8862">
        <ele>181</ele>
        <time>2022-01-18T10:38:04+01:00</time>
      </trkpt>
      <trkpt lat="43.76393" lon="3.88611">
        <ele>171</ele>
        <time>2022-01-18T10:42:14+01:00</time>
      </trkpt>
      <trkpt lat="43.76345" lon="3.88584">
        <ele>144</ele>
        <time>2022-01-18T10:46:30+01:00</time>
      </trkpt>
      <trkpt lat="43.76318" lon="3.88619">
        <ele>128</ele>
        <time>2022-01-18T10:48:57+01:00</time>
      </trkpt>
      <trkpt lat="43.763" lon="3.88622">
        <ele>120</ele>
        <time>2022-01-18T10:49:38+01:00</time>
      </trkpt>
      <trkpt lat="43.76332" lon="3.88679">
        <ele>126</ele>
        <time>2022-01-18T10:51:15+01:00</time>
      </trkpt>
      <trkpt lat="43.76319" lon="3.88697">
        <ele>120</ele>
        <time>2022-01-18T10:52:10+01:00</time>
      </trkpt>
      <trkpt lat="43.76293" lon="3.88686">
        <ele>114</ele>
        <time>2022-01-18T10:52:37+01:00</time>
      </trkpt>
      <trkpt lat="43.76239" lon="3.88766">
        <ele>110</ele>
        <time>2022-01-18T10:53:59+01:00</time>
      </trkpt>
      <trkpt lat="43.76217" lon="3.88843">
        <ele>116</ele>
        <time>2022-01-18T10:54:57+01:00</time>
      </trkpt>
      <trkpt lat="43.76228" lon="3.88868">
        <ele>119</ele>
        <time>2022-01-18T10:55:23+01:00</time>
      </trkpt>
      <trkpt lat="43.76242" lon="3.88851">
        <ele>114</ele>
        <time>2022-01-18T10:56:06+01:00</time>
      </trkpt>
      <trkpt lat="43.76231" lon="3.88864">
        <ele>118</ele>
        <time>2022-01-18T10:56:20+01:00</time>
      </trkpt>
      <trkpt lat="43.76252" lon="3.88899">
        <ele>116</ele>
        <time>2022-01-18T10:56:51+01:00</time>
      </trkpt>
      <trkpt lat="43.7625" lon="3.88929">
        <ele>118</ele>
        <time>2022-01-18T10:58:18+01:00</time>
      </trkpt>
      <trkpt lat="43.76235" lon="3.88903">
        <ele>121</ele>
        <time>2022-01-18T10:59:24+01:00</time>
      </trkpt>
      <trkpt lat="43.76216" lon="3.88901">
        <ele>126</ele>
        <time>2022-01-18T11:00:18+01:00</time>
      </trkpt>
      <trkpt lat="43.76223" lon="3.8894">
        <ele>127</ele>
        <time>2022-01-18T11:01:06+01:00</time>
      </trkpt>
      <trkpt lat="43.76252" lon="3.88975">
        <ele>119</ele>
        <time>2022-01-18T11:03:34+01:00</time>
      </trkpt>
      <trkpt lat="43.76328" lon="3.88997">
        <ele>122</ele>
        <time>2022-01-18T11:05:03+01:00</time>
      </trkpt>
      <trkpt lat="43.76426" lon="3.89091">
        <ele>121</ele>
        <time>2022-01-18T11:06:48+01:00</time>
      </trkpt>
      <trkpt lat="43.76453" lon="3.89101">
        <ele>120</ele>
        <time>2022-01-18T11:07:32+01:00</time>
      </trkpt>
      <trkpt lat="43.76502" lon="3.89092">
        <ele>120</ele>
        <time>2022-01-18T11:08:13+01:00</time>
      </trkpt>
      <trkpt lat="43.76637" lon="3.89165">
        <ele>121</ele>
        <time>2022-01-18T11:13:27+01:00</time>
      </trkpt>
      <trkpt lat="43.76671" lon="3.89161">
        <ele>120</ele>
        <time>2022-01-18T11:14:02+01:00</time>
      </trkpt>
      <trkpt lat="43.7677" lon="3.89248">
        <ele>129</ele>
        <time>2022-01-18T11:15:39+01:00</time>
      </trkpt>
      <trkpt lat="43.76897" lon="3.89327">
        <ele>139</ele>
        <time>2022-01-18T11:17:43+01:00</time>
      </trkpt>
      <trkpt lat="43.76925" lon="3.89367">
        <ele>142</ele>
        <time>2022-01-18T11:18:20+01:00</time>
      </trkpt>
      <trkpt lat="43.7697" lon="3.89372">
        <ele>142</ele>
        <time>2022-01-18T11:19:21+01:00</time>
      </trkpt>
      <trkpt lat="43.77143" lon="3.89534">
        <ele>130</ele>
        <time>2022-01-18T11:22:04+01:00</time>
      </trkpt>
      <trkpt lat="43.77186" lon="3.89538">
        <ele>126</ele>
        <time>2022-01-18T11:22:39+01:00</time>
      </trkpt>
      <trkpt lat="43.77232" lon="3.89583">
        <ele>125</ele>
        <time>2022-01-18T11:23:57+01:00</time>
      </trkpt>
      <trkpt lat="43.77377" lon="3.89667">
        <ele>120</ele>
        <time>2022-01-18T11:26:16+01:00</time>
      </trkpt>
      <trkpt lat="43.77415" lon="3.8976">
        <ele>118</ele>
        <time>2022-01-18T11:27:26+01:00</time>
      </trkpt>
      <trkpt lat="43.77415" lon="3.89892">
        <ele>123</ele>
        <time>2022-01-18T11:29:06+01:00</time>
      </trkpt>
      <trkpt lat="43.7739" lon="3.90009">
        <ele>120</ele>
        <time>2022-01-18T11:30:14+01:00</time>
      </trkpt>
      <trkpt lat="43.77355" lon="3.90081">
        <ele>118</ele>
        <time>2022-01-18T11:31:03+01:00</time>
      </trkpt>
      <trkpt lat="43.77322" lon="3.90268">
        <ele>114</ele>
        <time>2022-01-18T11:32:45+01:00</time>
      </trkpt>
      <trkpt lat="43.77354" lon="3.90577">
        <ele>114</ele>
        <time>2022-01-18T11:35:58+01:00</time>
      </trkpt>
      <trkpt lat="43.77339" lon="3.90781">
        <ele>112</ele>
        <time>2022-01-18T11:38:11+01:00</time>
      </trkpt>
      <trkpt lat="43.77349" lon="3.90842">
        <ele>111</ele>
        <time>2022-01-18T11:39:18+01:00</time>
      </trkpt>
      <trkpt lat="43.77308" lon="3.90861">
        <ele>112</ele>
        <time>2022-01-18T11:40:13+01:00</time>
      </trkpt>
      <trkpt lat="43.77311" lon="3.90879">
        <ele>111</ele>
        <time>2022-01-18T11:41:03+01:00</time>
      </trkpt>
      <trkpt lat="43.77316" lon="3.90916">
        <ele>111</ele>
        <time>2022-01-18T11:42:15+01:00</time>
      </trkpt>
      <trkpt lat="43.77328" lon="3.90923">
        <ele>110</ele>
        <time>2022-01-18T11:42:47+01:00</time>
      </trkpt>
      <trkpt lat="43.77337" lon="3.90969">
        <ele>112</ele>
        <time>2022-01-18T11:43:36+01:00</time>
      </trkpt>
      <trkpt lat="43.7736" lon="3.90991">
        <ele>112</ele>
      </trkpt>
      <trkpt lat="43.77396" lon="3.91001">
        <ele>112</ele>
      </trkpt>
      <trkpt lat="43.77425" lon="3.91021">
        <ele>111</ele>
        <time>2022-01-18T11:44:53+01:00</time>
      </trkpt>
      <trkpt lat="43.77465" lon="3.91061">
        <ele>112</ele>
      </trkpt>
      <trkpt lat="43.77488" lon="3.91093">
        <ele>112</ele>
        <time>2022-01-18T11:46:07+01:00</time>
      </trkpt>
      <trkpt lat="43.77548" lon="3.91121">
        <ele>111</ele>
      </trkpt>
      <trkpt lat="43.77559" lon="3.91129">
        <ele>111</ele>
      </trkpt>
      <trkpt lat="43.77606" lon="3.91148">
        <ele>111</ele>
        <time>2022-01-18T11:47:47+01:00</time>
      </trkpt>
      <trkpt lat="43.77641" lon="3.91185">
        <ele>110</ele>
      </trkpt>
      <trkpt lat="43.77662" lon="3.91227">
        <ele>110</ele>
      </trkpt>
      <trkpt lat="43.77688" lon="3.91275">
        <ele>110</ele>
        <time>2022-01-18T11:49:23+01:00</time>
      </trkpt>
      <trkpt lat="43.77724" lon="3.91344">
        <ele>109</ele>
      </trkpt>
      <trkpt lat="43.77772" lon="3.91413">
        <ele>110</ele>
      </trkpt>
      <trkpt lat="43.77827" lon="3.91522">
        <ele>111</ele>
        <time>2022-01-18T11:53:10+01:00</time>
      </trkpt>
      <trkpt lat="43.77869" lon="3.91569">
        <ele>109</ele>
      </trkpt>
      <trkpt lat="43.77896" lon="3.91615">
        <ele>108</ele>
        <time>2022-01-18T11:54:33+01:00</time>
      </trkpt>
      <trkpt lat="43.78002" lon="3.91715">
        <ele>108</ele>
        <time>2022-01-18T11:56:00+01:00</time>
      </trkpt>
      <trkpt lat="43.78007" lon="3.91781">
        <ele>108</ele>
        <time>2022-01-18T11:57:30+01:00</time>
      </trkpt>
      <trkpt lat="43.78018" lon="3.91785">
        <ele>107</ele>
        <time>2022-01-18T11:57:51+01:00</time>
      </trkpt>
      <trkpt lat="43.78035" lon="3.91812">
        <ele>106</ele>
      </trkpt>
      <trkpt lat="43.78047" lon="3.91813">
        <ele>106</ele>
      </trkpt>
      <trkpt lat="43.78063" lon="3.918">
        <ele>105</ele>
      </trkpt>
      <trkpt lat="43.78084" lon="3.91815">
        <ele>107</ele>
      </trkpt>
      <trkpt lat="43.78107" lon="3.9185">
        <ele>109</ele>
        <time>2022-01-18T11:58:41+01:00</time>
      </trkpt>
      <trkpt lat="43.78177" lon="3.91952">
        <ele>110</ele>
      </trkpt>
      <trkpt lat="43.78204" lon="3.91997">
        <ele>113</ele>
      </trkpt>
      <trkpt lat="43.78238" lon="3.92032">
        <ele>114</ele>
      </trkpt>
      <trkpt lat="43.78268" lon="3.92051">
        <ele>116</ele>
        <time>2022-01-18T12:01:36+01:00</time>
      </trkpt>
      <trkpt lat="43.78329" lon="3.92091">
        <ele>114</ele>
      </trkpt>
      <trkpt lat="43.78396" lon="3.92125">
        <ele>131</ele>
        <time>2022-01-18T12:07:04+01:00</time>
      </trkpt>
      <trkpt lat="43.78447" lon="3.92163">
        <ele>147</ele>
        <time>2022-01-18T12:09:34+01:00</time>
      </trkpt>
      <trkpt lat="43.78464" lon="3.92187">
        <ele>149</ele>
        <time>2022-01-18T12:10:24+01:00</time>
      </trkpt>
      <trkpt lat="43.78478" lon="3.92199">
        <ele>150</ele>
        <time>2022-01-18T12:10:37+01:00</time>
      </trkpt>
      <trkpt lat="43.78489" lon="3.92178">
        <ele>154</ele>
        <time>2022-01-18T12:11:17+01:00</time>
      </trkpt>
      <trkpt lat="43.78511" lon="3.92179">
        <ele>151</ele>
        <time>2022-01-18T12:12:17+01:00</time>
      </trkpt>
      <trkpt lat="43.78537" lon="3.92149">
        <ele>145</ele>
        <time>2022-01-18T12:12:44+01:00</time>
      </trkpt>
      <trkpt lat="43.78605" lon="3.92047">
        <ele>138</ele>
        <time>2022-01-18T12:15:32+01:00</time>
      </trkpt>
      <trkpt lat="43.78697" lon="3.91998">
        <ele>132</ele>
        <time>2022-01-18T12:17:11+01:00</time>
      </trkpt>
      <trkpt lat="43.78796" lon="3.91932">
        <ele>113</ele>
      </trkpt>
      <trkpt lat="43.78899" lon="3.91864">
        <ele>95</ele>
        <time>2022-01-18T12:21:15+01:00</time>
      </trkpt>
      <trkpt lat="43.78933" lon="3.91934">
        <ele>95</ele>
        <time>2022-01-18T12:22:03+01:00</time>
      </trkpt>
      <trkpt lat="43.78949" lon="3.91939">
        <ele>95</ele>
        <time>2022-01-18T12:22:22+01:00</time>
      </trkpt>
      <trkpt lat="43.79" lon="3.9191">
        <ele>95</ele>
      </trkpt>
      <trkpt lat="43.79127" lon="3.91798">
        <ele>105</ele>
        <time>2022-01-18T12:32:45+01:00</time>
      </trkpt>
      <trkpt lat="43.79232" lon="3.91778">
        <ele>102</ele>
        <time>2022-01-18T12:34:10+01:00</time>
      </trkpt>
      <trkpt lat="43.79288" lon="3.91669">
        <ele>102</ele>
        <time>2022-01-18T12:35:37+01:00</time>
      </trkpt>
      <trkpt lat="43.79341" lon="3.91607">
        <ele>103</ele>
        <time>2022-01-18T12:36:29+01:00</time>
      </trkpt>
      <trkpt lat="43.79349" lon="3.91582">
        <ele>104</ele>
      </trkpt>
      <trkpt lat="43.7934" lon="3.91544">
        <ele>104</ele>
        <time>2022-01-18T12:37:06+01:00</time>
      </trkpt>
      <trkpt lat="43.79361" lon="3.91534">
        <ele>105</ele>
        <time>2022-01-18T12:37:27+01:00</time>
      </trkpt>
      <trkpt lat="43.79354" lon="3.91496">
        <ele>105</ele>
        <time>2022-01-18T12:39:09+01:00</time>
      </trkpt>
      <trkpt lat="43.79377" lon="3.91496">
        <ele>105</ele>
        <time>2022-01-18T12:39:56+01:00</time>
      </trkpt>
      <trkpt lat="43.79406" lon="3.91426">
        <ele>106</ele>
        <time>2022-01-18T12:41:34+01:00</time>
      </trkpt>
      <trkpt lat="43.79425" lon="3.91378">
        <ele>107</ele>
      </trkpt>
      <trkpt lat="43.79417" lon="3.9136">
        <ele>107</ele>
      </trkpt>
      <trkpt lat="43.79434" lon="3.91328">
        <ele>107</ele>
        <time>2022-01-18T12:44:18+01:00</time>
      </trkpt>
      <trkpt lat="43.79373" lon="3.91269">
        <ele>106</ele>
      </trkpt>
      <trkpt lat="43.79316" lon="3.91205">
        <ele>105</ele>
        <time>2022-01-18T12:46:16+01:00</time>
      </trkpt>
      <trkpt lat="43.79332" lon="3.91087">
        <ele>106</ele>
        <time>2022-01-18T12:47:27+01:00</time>
      </trkpt>
      <trkpt lat="43.79318" lon="3.90944">
        <ele>108</ele>
      </trkpt>
      <trkpt lat="43.79307" lon="3.90892">
        <ele>109</ele>
      </trkpt>
      <trkpt lat="43.79286" lon="3.90842">
        <ele>110</ele>
        <time>2022-01-18T12:49:40+01:00</time>
      </trkpt>
      <trkpt lat="43.79236" lon="3.90755">
        <ele>109</ele>
      </trkpt>
      <trkpt lat="43.79175" lon="3.90628">
        <ele>109</ele>
        <time>2022-01-18T12:52:27+01:00</time>
      </trkpt>
      <trkpt lat="43.79158" lon="3.90591">
        <ele>109</ele>
      </trkpt>
      <trkpt lat="43.79137" lon="3.90512">
        <ele>108</ele>
      </trkpt>
      <trkpt lat="43.79095" lon="3.90398">
        <ele>109</ele>
        <time>2022-01-18T12:54:42+01:00</time>
      </trkpt>
      <trkpt lat="43.79064" lon="3.90362">
        <ele>108</ele>
        <time>2022-01-18T12:55:40+01:00</time>
      </trkpt>
      <trkpt lat="43.79016" lon="3.90313">
        <ele>106</ele>
        <time>2022-01-18T12:56:27+01:00</time>
      </trkpt>
      <trkpt lat="43.78911" lon="3.9026">
        <ele>108</ele>
        <time>2022-01-18T12:57:56+01:00</time>
      </trkpt>
      <trkpt lat="43.78889" lon="3.90221">
        <ele>110</ele>
        <time>2022-01-18T12:58:28+01:00</time>
      </trkpt>
      <trkpt lat="43.78831" lon="3.90127">
        <ele>111</ele>
        <time>2022-01-18T12:59:44+01:00</time>
      </trkpt>
      <trkpt lat="43.78821" lon="3.90086">
        <ele>110</ele>
      </trkpt>
      <trkpt lat="43.78824" lon="3.90057">
        <ele>110</ele>
        <time>2022-01-18T13:00:33+01:00</time>
      </trkpt>
      <trkpt lat="43.78771" lon="3.90012">
        <ele>110</ele>
        <time>2022-01-18T13:01:44+01:00</time>
      </trkpt>
      <trkpt lat="43.78708" lon="3.9002">
        <ele>110</ele>
      </trkpt>
      <trkpt lat="43.78681" lon="3.90033">
        <ele>109</ele>
      </trkpt>
      <trkpt lat="43.78633" lon="3.90042">
        <ele>106</ele>
        <time>2022-01-18T13:03:42+01:00</time>
      </trkpt>
      <trkpt lat="43.78627" lon="3.89953">
        <ele>107</ele>
      </trkpt>
      <trkpt lat="43.78605" lon="3.8976">
        <ele>110</ele>
      </trkpt>
      <trkpt lat="43.7858" lon="3.89643">
        <ele>114</ele>
        <time>2022-01-18T13:07:58+01:00</time>
      </trkpt>
      <trkpt lat="43.78528" lon="3.89408">
        <ele>115</ele>
      </trkpt>
      <trkpt lat="43.78503" lon="3.89349">
        <ele>115</ele>
      </trkpt>
      <trkpt lat="43.78483" lon="3.89284">
        <ele>115</ele>
      </trkpt>
      <trkpt lat="43.78464" lon="3.89194">
        <ele>115</ele>
        <time>2022-01-18T13:13:07+01:00</time>
      </trkpt>
      <trkpt lat="43.78438" lon="3.89126">
        <ele>115</ele>
      </trkpt>
      <trkpt lat="43.78399" lon="3.89059">
        <ele>115</ele>
      </trkpt>
      <trkpt lat="43.78356" lon="3.88955">
        <ele>116</ele>
      </trkpt>
      <trkpt lat="43.7831" lon="3.88872">
        <ele>117</ele>
        <time>2022-01-18T13:17:14+01:00</time>
      </trkpt>
      <trkpt lat="43.78273" lon="3.88809">
        <ele>117</ele>
      </trkpt>
      <trkpt lat="43.78215" lon="3.88739">
        <ele>117</ele>
      </trkpt>
      <trkpt lat="43.7816" lon="3.88669">
        <ele>116</ele>
        <time>2022-01-18T13:20:59+01:00</time>
      </trkpt>
      <trkpt lat="43.78132" lon="3.88655">
        <ele>115</ele>
        <time>2022-01-18T13:21:39+01:00</time>
      </trkpt>
      <trkpt lat="43.78115" lon="3.8865">
        <ele>115</ele>
        <time>2022-01-18T13:21:54+01:00</time>
      </trkpt>
      <trkpt lat="43.78093" lon="3.8865">
        <ele>115</ele>
        <time>2022-01-18T13:23:07+01:00</time>
      </trkpt>
      <trkpt lat="43.77994" lon="3.88657">
        <ele>116</ele>
        <time>2022-01-18T13:24:42+01:00</time>
      </trkpt>
      <trkpt lat="43.7778" lon="3.88723">
        <ele>120</ele>
        <time>2022-01-18T13:28:02+01:00</time>
      </trkpt>
      <trkpt lat="43.77673" lon="3.88679">
        <ele>119</ele>
        <time>2022-01-18T13:29:51+01:00</time>
      </trkpt>
      <trkpt lat="43.77655" lon="3.88732">
        <ele>122</ele>
        <time>2022-01-18T13:30:52+01:00</time>
      </trkpt>
      <trkpt lat="43.77688" lon="3.88808">
        <ele>121</ele>
        <time>2022-01-18T13:31:57+01:00</time>
      </trkpt>
      <trkpt lat="43.77701" lon="3.88886">
        <ele>122</ele>
        <time>2022-01-18T13:32:54+01:00</time>
      </trkpt>
      <trkpt lat="43.77591" lon="3.88887">
        <ele>126</ele>
        <time>2022-01-18T13:34:32+01:00</time>
      </trkpt>
      <trkpt lat="43.77556" lon="3.88961">
        <ele>128</ele>
      </trkpt>
      <trkpt lat="43.77512" lon="3.89075">
        <ele>135</ele>
        <time>2022-01-18T13:37:02+01:00</time>
      </trkpt>
      <trkpt lat="43.77495" lon="3.89108">
        <ele>135</ele>
      </trkpt>
      <trkpt lat="43.77464" lon="3.89125">
        <ele>140</ele>
        <time>2022-01-18T13:37:54+01:00</time>
      </trkpt>
      <trkpt lat="43.77447" lon="3.89165">
        <ele>140</ele>
        <time>2022-01-18T13:38:24+01:00</time>
      </trkpt>
      <trkpt lat="43.77375" lon="3.89231">
        <ele>145</ele>
        <time>2022-01-18T13:39:43+01:00</time>
      </trkpt>
      <trkpt lat="43.77326" lon="3.89233">
        <ele>149</ele>
        <time>2022-01-18T13:40:27+01:00</time>
      </trkpt>
      <trkpt lat="43.77304" lon="3.89248">
        <ele>150</ele>
        <time>2022-01-18T13:40:50+01:00</time>
      </trkpt>
      <trkpt lat="43.77279" lon="3.89244">
        <ele>151</ele>
        <time>2022-01-18T13:41:13+01:00</time>
      </trkpt>
      <trkpt lat="43.77263" lon="3.8922">
        <ele>156</ele>
      </trkpt>
      <trkpt lat="43.77245" lon="3.89215">
        <ele>157</ele>
        <time>2022-01-18T13:41:50+01:00</time>
      </trkpt>
      <trkpt lat="43.77204" lon="3.89245">
        <ele>155</ele>
        <time>2022-01-18T13:42:39+01:00</time>
      </trkpt>
      <trkpt lat="43.7718" lon="3.89221">
        <ele>158</ele>
        <time>2022-01-18T13:43:05+01:00</time>
      </trkpt>
      <trkpt lat="43.77149" lon="3.89217">
        <ele>157</ele>
        <time>2022-01-18T13:43:31+01:00</time>
      </trkpt>
      <trkpt lat="43.77126" lon="3.89154">
        <ele>171</ele>
        <time>2022-01-18T13:44:21+01:00</time>
      </trkpt>
      <trkpt lat="43.77097" lon="3.89178">
        <ele>163</ele>
        <time>2022-01-18T13:44:47+01:00</time>
      </trkpt>
      <trkpt lat="43.77084" lon="3.89147">
        <ele>174</ele>
      </trkpt>
      <trkpt lat="43.77065" lon="3.89149">
        <ele>173</ele>
        <time>2022-01-18T13:45:23+01:00</time>
      </trkpt>
      <trkpt lat="43.77002" lon="3.89147">
        <ele>178</ele>
        <time>2022-01-18T13:46:51+01:00</time>
      </trkpt>
      <trkpt lat="43.7702" lon="3.89127">
        <ele>185</ele>
        <time>2022-01-18T13:47:37+01:00</time>
      </trkpt>
      <trkpt lat="43.7705" lon="3.89128">
        <ele>183</ele>
      </trkpt>
      <trkpt lat="43.77074" lon="3.89109">
        <ele>191</ele>
      </trkpt>
      <trkpt lat="43.77092" lon="3.89115">
        <ele>187</ele>
      </trkpt>
      <trkpt lat="43.77129" lon="3.89096">
        <ele>195</ele>
        <time>2022-01-18T13:49:25+01:00</time>
      </trkpt>
      <trkpt lat="43.77203" lon="3.891">
        <ele>197</ele>
        <time>2022-01-18T13:51:10+01:00</time>
      </trkpt>
      <trkpt lat="43.77271" lon="3.8909">
        <ele>200</ele>
        <time>2022-01-18T13:54:02+01:00</time>
      </trkpt>
      <trkpt lat="43.77312" lon="3.89061">
        <ele>203</ele>
        <time>2022-01-18T13:54:46+01:00</time>
      </trkpt>
      <trkpt lat="43.77337" lon="3.89019">
        <ele>203</ele>
        <time>2022-01-18T13:55:22+01:00</time>
      </trkpt>
      <trkpt lat="43.77328" lon="3.88986">
        <ele>205</ele>
      </trkpt>
      <trkpt lat="43.77299" lon="3.88961">
        <ele>208</ele>
        <time>2022-01-18T13:56:15+01:00</time>
      </trkpt>
      <trkpt lat="43.77223" lon="3.88926">
        <ele>216</ele>
      </trkpt>
      <trkpt lat="43.77144" lon="3.88901">
        <ele>219</ele>
        <time>2022-01-18T13:59:10+01:00</time>
      </trkpt>
      <trkpt lat="43.77126" lon="3.88953">
        <ele>219</ele>
        <time>2022-01-18T14:00:04+01:00</time>
      </trkpt>
      <trkpt lat="43.77093" lon="3.88976">
        <ele>219</ele>
        <time>2022-01-18T14:00:33+01:00</time>
      </trkpt>
      <trkpt lat="43.77025" lon="3.89004">
        <ele>215</ele>
        <time>2022-01-18T14:01:32+01:00</time>
      </trkpt>
      <trkpt lat="43.76933" lon="3.88992">
        <ele>215</ele>
        <time>2022-01-18T14:02:48+01:00</time>
      </trkpt>
      <trkpt lat="43.76924" lon="3.89002">
        <ele>215</ele>
        <time>2022-01-18T14:02:58+01:00</time>
      </trkpt>
      <trkpt lat="43.76561" lon="3.88672">
        <ele>179</ele>
        <time>2022-01-18T14:10:43+01:00</time>
      </trkpt>
      <trkpt lat="43.76483" lon="3.88628">
        <ele>184</ele>
        <time>2022-01-18T14:11:53+01:00</time>
      </trkpt>
      <trkpt lat="43.76484" lon="3.88586">
        <ele>185</ele>
        <time>2022-01-18T14:12:26+01:00</time>
      </trkpt>
      <trkpt lat="43.76539" lon="3.88551">
        <ele>179</ele>
        <time>2022-01-18T14:13:16+01:00</time>
      </trkpt>
      <trkpt lat="43.76595" lon="3.88408">
        <ele>175</ele>
        <time>2022-01-18T14:15:12+01:00</time>
      </trkpt>
      <trkpt lat="43.76645" lon="3.88326">
        <ele>164</ele>
        <time>2022-01-18T14:16:18+01:00</time>
      </trkpt>
      <trkpt lat="43.76625" lon="3.88511">
        <ele>157</ele>
        <time>2022-01-18T14:18:20+01:00</time>
      </trkpt>
      <trkpt lat="43.76602" lon="3.88577">
        <ele>162</ele>
        <time>2022-01-18T14:19:08+01:00</time>
      </trkpt>
      <trkpt lat="43.7665" lon="3.88618">
        <ele>157</ele>
        <time>2022-01-18T14:19:54+01:00</time>
      </trkpt>
      <trkpt lat="43.76686" lon="3.88616">
        <ele>152</ele>
        <time>2022-01-18T14:20:19+01:00</time>
      </trkpt>
      <trkpt lat="43.76733" lon="3.8867">
        <ele>153</ele>
        <time>2022-01-18T14:21:10+01:00</time>
      </trkpt>
      <trkpt lat="43.76756" lon="3.88659">
        <ele>154</ele>
        <time>2022-01-18T14:21:29+01:00</time>
      </trkpt>
      <trkpt lat="43.76754" lon="3.88611">
        <ele>154</ele>
        <time>2022-01-18T14:21:54+01:00</time>
      </trkpt>
      <trkpt lat="43.76712" lon="3.8853">
        <ele>148</ele>
        <time>2022-01-18T14:22:53+01:00</time>
      </trkpt>
      <trkpt lat="43.7671" lon="3.88423">
        <ele>142</ele>
        <time>2022-01-18T14:23:55+01:00</time>
      </trkpt>
      <trkpt lat="43.76788" lon="3.88225">
        <ele>130</ele>
        <time>2022-01-18T14:26:42+01:00</time>
      </trkpt>
      <trkpt lat="43.7685" lon="3.88128">
        <ele>119</ele>
        <time>2022-01-18T14:28:14+01:00</time>
      </trkpt>
      <trkpt lat="43.76845" lon="3.88091">
        <ele>116</ele>
        <time>2022-01-18T14:28:35+01:00</time>
      </trkpt>
      <trkpt lat="43.76812" lon="3.88062">
        <ele>116</ele>
        <time>2022-01-18T14:29:55+01:00</time>
      </trkpt>
      <trkpt lat="43.76808" lon="3.87982">
        <ele>110</ele>
        <time>2022-01-18T14:30:55+01:00</time>
      </trkpt>
      <trkpt lat="43.76769" lon="3.87962">
        <ele>104</ele>
        <time>2022-01-18T14:31:30+01:00</time>
      </trkpt>
      <trkpt lat="43.76739" lon="3.8798">
        <ele>105</ele>
        <time>2022-01-18T14:31:57+01:00</time>
      </trkpt>
    </trkseg>
  </trk>
</gpx>